sensor_id;sensor_type;location;lat;lon;timestamp;pressure;altitude;pressure_sealevel;temperature;humidity
26376;BME280;30544;42.196;24.336;2022-07-05T00:01:10;99215.91;;;23.50;44.33
26376;BME280;30544;42.196;24.336;2022-07-05T00:03:38;99209.59;;;23.19;44.58
26376;BME280;30544;42.196;24.336;2022-07-05T00:06:05;99225.03;;;23.13;45.45
26376;BME280;30544;42.196;24.336;2022-07-05T00:08:32;99206.75;;;23.01;45.69
26376;BME280;30544;42.196;24.336;2022-07-05T00:11:00;99224.34;;;22.98;45.78
26376;BME280;30544;42.196;24.336;2022-07-05T00:13:27;99215.03;;;22.89;46.51
26376;BME280;30544;42.196;24.336;2022-07-05T00:15:53;99233.75;;;22.68;46.81
26376;BME280;30544;42.196;24.336;2022-07-05T00:18:20;99216.56;;;22.64;47.52
26376;BME280;30544;42.196;24.336;2022-07-05T00:20:47;99206.53;;;22.89;46.75
26376;BME280;30544;42.196;24.336;2022-07-05T00:23:14;99200.81;;;22.80;47.42
26376;BME280;30544;42.196;24.336;2022-07-05T00:25:41;99200.41;;;22.87;47.83
26376;BME280;30544;42.196;24.336;2022-07-05T00:28:09;99208.81;;;22.78;48.12
26376;BME280;30544;42.196;24.336;2022-07-05T00:30:36;99201.47;;;22.69;48.46
26376;BME280;30544;42.196;24.336;2022-07-05T00:33:03;99191.69;;;22.75;48.06
26376;BME280;30544;42.196;24.336;2022-07-05T00:35:30;99183.69;;;22.68;48.69
26376;BME280;30544;42.196;24.336;2022-07-05T00:37:56;99199.94;;;22.63;49.26
26376;BME280;30544;42.196;24.336;2022-07-05T00:40:23;99192.03;;;22.82;49.12
26376;BME280;30544;42.196;24.336;2022-07-05T00:42:50;99191.31;;;22.59;50.00
26376;BME280;30544;42.196;24.336;2022-07-05T00:45:18;99172.53;;;22.63;49.94
26376;BME280;30544;42.196;24.336;2022-07-05T00:47:46;99188.31;;;22.56;50.40
26376;BME280;30544;42.196;24.336;2022-07-05T00:50:13;99193.63;;;22.66;50.03
26376;BME280;30544;42.196;24.336;2022-07-05T00:52:40;99176.13;;;22.46;51.15
26376;BME280;30544;42.196;24.336;2022-07-05T00:55:08;99169.19;;;22.61;51.22
26376;BME280;30544;42.196;24.336;2022-07-05T00:57:35;99177.00;;;22.56;51.82
26376;BME280;30544;42.196;24.336;2022-07-05T01:00:06;99168.53;;;22.56;51.99
26376;BME280;30544;42.196;24.336;2022-07-05T01:02:35;99176.16;;;22.55;51.91
26376;BME280;30544;42.196;24.336;2022-07-05T01:05:03;99178.94;;;22.38;52.60
26376;BME280;30544;42.196;24.336;2022-07-05T01:07:30;99169.78;;;22.01;54.42
26376;BME280;30544;42.196;24.336;2022-07-05T01:09:57;99164.25;;;22.18;53.92
26376;BME280;30544;42.196;24.336;2022-07-05T01:12:24;99163.31;;;22.01;54.65
26376;BME280;30544;42.196;24.336;2022-07-05T01:14:52;99158.25;;;21.89;55.29
26376;BME280;30544;42.196;24.336;2022-07-05T01:17:20;99133.41;;;21.69;55.26
26376;BME280;30544;42.196;24.336;2022-07-05T01:19:49;99161.56;;;21.60;55.81
26376;BME280;30544;42.196;24.336;2022-07-05T01:22:18;99160.13;;;21.49;56.52
26376;BME280;30544;42.196;24.336;2022-07-05T01:24:48;99157.47;;;21.44;56.90
26376;BME280;30544;42.196;24.336;2022-07-05T01:27:15;99149.97;;;21.39;57.25
26376;BME280;30544;42.196;24.336;2022-07-05T01:29:42;99160.47;;;20.75;58.29
26376;BME280;30544;42.196;24.336;2022-07-05T01:32:09;99175.81;;;20.28;60.34
26376;BME280;30544;42.196;24.336;2022-07-05T01:34:37;99174.91;;;20.19;61.38
26376;BME280;30544;42.196;24.336;2022-07-05T01:37:05;99170.75;;;20.16;61.15
26376;BME280;30544;42.196;24.336;2022-07-05T01:39:32;99170.81;;;20.25;61.26
26376;BME280;30544;42.196;24.336;2022-07-05T01:42:01;99165.81;;;20.08;61.61
26376;BME280;30544;42.196;24.336;2022-07-05T01:44:29;99161.47;;;20.16;61.25
26376;BME280;30544;42.196;24.336;2022-07-05T01:47:01;99168.53;;;20.40;60.59
26376;BME280;30544;42.196;24.336;2022-07-05T01:49:31;99160.22;;;20.49;59.99
26376;BME280;30544;42.196;24.336;2022-07-05T01:52:08;99161.16;;;20.45;60.40
26376;BME280;30544;42.196;24.336;2022-07-05T01:54:36;99167.72;;;20.54;60.54
26376;BME280;30544;42.196;24.336;2022-07-05T01:57:06;99181.88;;;20.62;59.81
26376;BME280;30544;42.196;24.336;2022-07-05T01:59:33;99177.09;;;20.35;60.74
26376;BME280;30544;42.196;24.336;2022-07-05T02:02:00;99177.94;;;20.22;60.91
26376;BME280;30544;42.196;24.336;2022-07-05T02:04:29;99179.25;;;19.83;61.60
26376;BME280;30544;42.196;24.336;2022-07-05T02:06:56;99189.94;;;19.68;61.84
26376;BME280;30544;42.196;24.336;2022-07-05T02:09:24;99184.72;;;19.75;61.68
26376;BME280;30544;42.196;24.336;2022-07-05T02:11:51;99184.13;;;19.92;61.12
26376;BME280;30544;42.196;24.336;2022-07-05T02:14:19;99173.53;;;20.02;60.77
26376;BME280;30544;42.196;24.336;2022-07-05T02:16:46;99170.50;;;19.85;61.13
26376;BME280;30544;42.196;24.336;2022-07-05T02:19:13;99168.03;;;19.65;61.86
26376;BME280;30544;42.196;24.336;2022-07-05T02:21:40;99188.97;;;19.59;62.42
26376;BME280;30544;42.196;24.336;2022-07-05T02:24:08;99184.59;;;19.47;62.88
26376;BME280;30544;42.196;24.336;2022-07-05T02:26:35;99170.84;;;19.32;63.15
26376;BME280;30544;42.196;24.336;2022-07-05T02:29:03;99177.88;;;19.48;62.72
26376;BME280;30544;42.196;24.336;2022-07-05T02:31:31;99174.00;;;19.77;61.90
26376;BME280;30544;42.196;24.336;2022-07-05T02:33:58;99187.09;;;20.00;60.98
26376;BME280;30544;42.196;24.336;2022-07-05T02:36:26;99183.84;;;20.07;60.75
26376;BME280;30544;42.196;24.336;2022-07-05T02:38:53;99182.66;;;19.80;61.39
26376;BME280;30544;42.196;24.336;2022-07-05T02:41:20;99180.59;;;19.86;61.66
26376;BME280;30544;42.196;24.336;2022-07-05T02:43:46;99180.59;;;19.86;62.27
26376;BME280;30544;42.196;24.336;2022-07-05T02:46:13;99189.94;;;19.81;62.43
26376;BME280;30544;42.196;24.336;2022-07-05T02:48:42;99179.25;;;19.83;62.20
26376;BME280;30544;42.196;24.336;2022-07-05T02:51:09;99190.09;;;19.90;62.21
26376;BME280;30544;42.196;24.336;2022-07-05T02:53:36;99186.59;;;19.79;62.37
26376;BME280;30544;42.196;24.336;2022-07-05T02:56:03;99188.44;;;20.03;61.62
26376;BME280;30544;42.196;24.336;2022-07-05T02:58:30;99194.63;;;20.19;61.30
26376;BME280;30544;42.196;24.336;2022-07-05T03:00:57;99185.09;;;20.14;61.45
26376;BME280;30544;42.196;24.336;2022-07-05T03:03:24;99185.41;;;20.27;61.21
26376;BME280;30544;42.196;24.336;2022-07-05T03:05:52;99184.28;;;20.28;60.87
26376;BME280;30544;42.196;24.336;2022-07-05T03:08:19;99185.22;;;20.37;60.60
26376;BME280;30544;42.196;24.336;2022-07-05T03:10:46;99193.41;;;20.52;60.87
26376;BME280;30544;42.196;24.336;2022-07-05T03:13:13;99189.94;;;20.41;61.00
26376;BME280;30544;42.196;24.336;2022-07-05T03:15:39;99190.91;;;20.51;61.04
26376;BME280;30544;42.196;24.336;2022-07-05T03:18:08;99174.19;;;20.54;60.44
26376;BME280;30544;42.196;24.336;2022-07-05T03:20:34;99173.66;;;20.38;61.08
26376;BME280;30544;42.196;24.336;2022-07-05T03:23:03;99155.47;;;20.31;60.77
26376;BME280;30544;42.196;24.336;2022-07-05T03:25:30;99184.94;;;20.52;61.03
26376;BME280;30544;42.196;24.336;2022-07-05T03:27:57;99176.69;;;20.42;61.45
26376;BME280;30544;42.196;24.336;2022-07-05T03:30:24;99179.41;;;20.33;61.70
26376;BME280;30544;42.196;24.336;2022-07-05T03:32:51;99188.78;;;20.56;60.92
26376;BME280;30544;42.196;24.336;2022-07-05T03:35:17;99175.84;;;20.55;62.01
26376;BME280;30544;42.196;24.336;2022-07-05T03:37:44;99173.44;;;20.62;61.46
26376;BME280;30544;42.196;24.336;2022-07-05T03:40:13;99175.03;;;20.41;62.05
26376;BME280;30544;42.196;24.336;2022-07-05T03:42:40;99170.44;;;20.59;62.11
26376;BME280;30544;42.196;24.336;2022-07-05T03:45:07;99167.88;;;20.85;61.42
26376;BME280;30544;42.196;24.336;2022-07-05T03:47:34;99162.44;;;20.88;60.98
26376;BME280;30544;42.196;24.336;2022-07-05T03:50:01;99161.34;;;20.98;61.33
26376;BME280;30544;42.196;24.336;2022-07-05T03:52:28;99169.00;;;21.34;59.53
26376;BME280;30544;42.196;24.336;2022-07-05T03:54:55;99165.19;;;22.14;58.79
26376;BME280;30544;42.196;24.336;2022-07-05T03:57:23;99160.00;;;22.38;55.02
26376;BME280;30544;42.196;24.336;2022-07-05T04:02:17;99162.91;;;22.73;54.75
26376;BME280;30544;42.196;24.336;2022-07-05T04:04:43;99167.59;;;22.29;54.89
26376;BME280;30544;42.196;24.336;2022-07-05T04:07:10;99169.56;;;21.98;55.82
26376;BME280;30544;42.196;24.336;2022-07-05T04:09:37;99164.72;;;22.60;54.48
26376;BME280;30544;42.196;24.336;2022-07-05T04:12:05;99170.81;;;23.10;53.55
26376;BME280;30544;42.196;24.336;2022-07-05T04:14:33;99157.00;;;23.61;52.53
26376;BME280;30544;42.196;24.336;2022-07-05T04:17:00;99156.97;;;23.87;51.57
26376;BME280;30544;42.196;24.336;2022-07-05T04:19:28;99153.31;;;23.17;52.12
26376;BME280;30544;42.196;24.336;2022-07-05T04:21:56;99158.13;;;23.51;51.52
26376;BME280;30544;42.196;24.336;2022-07-05T04:24:23;99155.41;;;23.98;50.95
26376;BME280;30544;42.196;24.336;2022-07-05T04:26:50;99154.66;;;24.18;50.67
26376;BME280;30544;42.196;24.336;2022-07-05T04:29:17;99167.69;;;24.19;50.08
26376;BME280;30544;42.196;24.336;2022-07-05T04:31:45;99148.91;;;24.06;50.26
26376;BME280;30544;42.196;24.336;2022-07-05T04:34:12;99152.72;;;24.10;50.07
26376;BME280;30544;42.196;24.336;2022-07-05T04:36:39;99160.03;;;24.58;50.16
26376;BME280;30544;42.196;24.336;2022-07-05T04:39:06;99151.84;;;24.86;48.69
26376;BME280;30544;42.196;24.336;2022-07-05T04:41:33;99155.31;;;24.92;48.34
26376;BME280;30544;42.196;24.336;2022-07-05T04:44:00;99156.03;;;25.09;47.86
26376;BME280;30544;42.196;24.336;2022-07-05T04:46:27;99154.03;;;25.10;46.74
26376;BME280;30544;42.196;24.336;2022-07-05T04:48:56;99152.78;;;24.69;48.03
26376;BME280;30544;42.196;24.336;2022-07-05T04:51:23;99149.75;;;25.04;47.18
26376;BME280;30544;42.196;24.336;2022-07-05T04:53:50;99147.66;;;25.13;47.82
26376;BME280;30544;42.196;24.336;2022-07-05T04:56:17;99168.19;;;24.59;47.36
26376;BME280;30544;42.196;24.336;2022-07-05T04:58:43;99159.94;;;24.96;47.50
26376;BME280;30544;42.196;24.336;2022-07-05T05:01:10;99147.97;;;25.20;46.93
26376;BME280;30544;42.196;24.336;2022-07-05T05:03:37;99148.72;;;25.62;46.77
26376;BME280;30544;42.196;24.336;2022-07-05T05:06:05;99147.25;;;26.22;45.86
26376;BME280;30544;42.196;24.336;2022-07-05T05:08:32;99135.97;;;26.14;45.52
26376;BME280;30544;42.196;24.336;2022-07-05T05:10:59;99148.97;;;26.02;46.07
26376;BME280;30544;42.196;24.336;2022-07-05T05:13:26;99176.59;;;24.98;47.75
26376;BME280;30544;42.196;24.336;2022-07-05T05:15:53;99165.38;;;25.10;47.64
26376;BME280;30544;42.196;24.336;2022-07-05T05:18:20;99177.47;;;25.19;47.67
26376;BME280;30544;42.196;24.336;2022-07-05T05:20:52;99161.25;;;25.82;45.77
26376;BME280;30544;42.196;24.336;2022-07-05T05:23:21;99167.22;;;26.01;45.99
26376;BME280;30544;42.196;24.336;2022-07-05T05:25:48;99164.94;;;26.64;44.83
26376;BME280;30544;42.196;24.336;2022-07-05T05:28:15;99146.69;;;26.90;42.92
26376;BME280;30544;42.196;24.336;2022-07-05T05:30:43;99152.66;;;26.03;45.11
26376;BME280;30544;42.196;24.336;2022-07-05T05:33:09;99165.97;;;26.23;44.42
26376;BME280;30544;42.196;24.336;2022-07-05T05:35:36;99165.63;;;27.10;43.91
26376;BME280;30544;42.196;24.336;2022-07-05T05:38:03;99159.72;;;26.79;43.31
26376;BME280;30544;42.196;24.336;2022-07-05T05:40:32;99135.25;;;27.26;43.12
26376;BME280;30544;42.196;24.336;2022-07-05T05:43:00;99158.50;;;27.56;42.18
26376;BME280;30544;42.196;24.336;2022-07-05T05:45:27;99162.50;;;27.27;42.62
26376;BME280;30544;42.196;24.336;2022-07-05T05:47:56;99150.66;;;27.66;41.14
26376;BME280;30544;42.196;24.336;2022-07-05T05:50:24;99144.75;;;28.02;41.24
26376;BME280;30544;42.196;24.336;2022-07-05T05:52:51;99143.56;;;28.19;40.80
26376;BME280;30544;42.196;24.336;2022-07-05T05:55:19;99157.34;;;28.17;39.62
26376;BME280;30544;42.196;24.336;2022-07-05T05:57:48;99160.63;;;28.31;40.74
26376;BME280;30544;42.196;24.336;2022-07-05T06:00:16;99152.56;;;28.21;40.17
26376;BME280;30544;42.196;24.336;2022-07-05T06:02:44;99151.66;;;28.17;39.29
26376;BME280;30544;42.196;24.336;2022-07-05T06:05:11;99159.44;;;28.32;40.25
26376;BME280;30544;42.196;24.336;2022-07-05T06:07:46;99155.75;;;28.48;39.29
26376;BME280;30544;42.196;24.336;2022-07-05T06:10:18;99151.41;;;28.69;39.53
26376;BME280;30544;42.196;24.336;2022-07-05T06:12:48;99153.63;;;28.60;39.07
26376;BME280;30544;42.196;24.336;2022-07-05T06:15:15;99156.09;;;28.93;38.32
26376;BME280;30544;42.196;24.336;2022-07-05T06:17:43;99158.72;;;29.02;38.31
26376;BME280;30544;42.196;24.336;2022-07-05T06:20:11;99155.53;;;28.09;39.97
26376;BME280;30544;42.196;24.336;2022-07-05T06:22:39;99145.53;;;28.62;39.81
26376;BME280;30544;42.196;24.336;2022-07-05T06:25:07;99151.78;;;28.68;39.80
26376;BME280;30544;42.196;24.336;2022-07-05T06:27:38;99148.97;;;29.77;38.61
26376;BME280;30544;42.196;24.336;2022-07-05T06:30:08;99146.63;;;29.24;38.92
26376;BME280;30544;42.196;24.336;2022-07-05T06:32:35;99160.63;;;29.14;40.18
26376;BME280;30544;42.196;24.336;2022-07-05T06:35:03;99163.69;;;29.05;39.59
26376;BME280;30544;42.196;24.336;2022-07-05T06:37:40;99148.53;;;28.85;39.22
26376;BME280;30544;42.196;24.336;2022-07-05T06:40:09;99160.00;;;29.40;38.55
26376;BME280;30544;42.196;24.336;2022-07-05T06:42:37;99142.75;;;29.17;39.23
26376;BME280;30544;42.196;24.336;2022-07-05T06:45:04;99147.13;;;29.30;37.98
26376;BME280;30544;42.196;24.336;2022-07-05T06:47:33;99140.13;;;28.26;37.95
26376;BME280;30544;42.196;24.336;2022-07-05T06:50:00;99134.56;;;28.80;38.80
26376;BME280;30544;42.196;24.336;2022-07-05T06:52:31;99137.09;;;29.75;36.69
26376;BME280;30544;42.196;24.336;2022-07-05T06:54:58;99137.81;;;29.33;36.42
26376;BME280;30544;42.196;24.336;2022-07-05T06:57:25;99135.91;;;29.21;37.24
26376;BME280;30544;42.196;24.336;2022-07-05T06:59:52;99136.78;;;29.80;36.21
26376;BME280;30544;42.196;24.336;2022-07-05T07:02:19;99136.47;;;29.27;36.67
26376;BME280;30544;42.196;24.336;2022-07-05T07:04:48;99130.66;;;29.58;35.61
26376;BME280;30544;42.196;24.336;2022-07-05T07:07:15;99148.03;;;29.15;36.88
26376;BME280;30544;42.196;24.336;2022-07-05T07:10:10;99136.75;;;29.57;36.10
26376;BME280;30544;42.196;24.336;2022-07-05T07:12:37;99141.03;;;29.12;36.41
26376;BME280;30544;42.196;24.336;2022-07-05T07:15:05;99136.13;;;28.93;37.36
26376;BME280;30544;42.196;24.336;2022-07-05T07:17:32;99143.75;;;29.24;36.82
26376;BME280;30544;42.196;24.336;2022-07-05T07:20:00;99127.94;;;29.46;37.26
26376;BME280;30544;42.196;24.336;2022-07-05T07:22:29;99131.34;;;29.94;36.78
26376;BME280;30544;42.196;24.336;2022-07-05T07:24:56;99143.13;;;30.80;35.40
26376;BME280;30544;42.196;24.336;2022-07-05T07:27:23;99127.31;;;31.17;35.24
26376;BME280;30544;42.196;24.336;2022-07-05T07:29:50;99128.03;;;31.70;34.56
26376;BME280;30544;42.196;24.336;2022-07-05T07:32:17;99122.88;;;31.19;33.16
26376;BME280;30544;42.196;24.336;2022-07-05T07:34:44;99122.72;;;31.08;33.88
26376;BME280;30544;42.196;24.336;2022-07-05T07:37:12;99115.94;;;31.54;34.29
26376;BME280;30544;42.196;24.336;2022-07-05T07:39:39;99124.91;;;31.49;33.39
26376;BME280;30544;42.196;24.336;2022-07-05T07:42:07;99132.41;;;30.51;33.75
26376;BME280;30544;42.196;24.336;2022-07-05T07:44:34;99124.53;;;30.67;34.69
26376;BME280;30544;42.196;24.336;2022-07-05T07:47:01;99136.28;;;30.39;33.63
26376;BME280;30544;42.196;24.336;2022-07-05T07:49:29;99120.03;;;30.43;33.37
26376;BME280;30544;42.196;24.336;2022-07-05T07:51:56;99119.38;;;31.06;33.93
26376;BME280;30544;42.196;24.336;2022-07-05T07:54:24;99115.38;;;30.12;33.04
26376;BME280;30544;42.196;24.336;2022-07-05T07:56:51;99118.19;;;30.32;33.27
26376;BME280;30544;42.196;24.336;2022-07-05T07:59:18;99118.72;;;31.17;32.25
26376;BME280;30544;42.196;24.336;2022-07-05T08:01:44;99115.50;;;31.82;32.17
26376;BME280;30544;42.196;24.336;2022-07-05T08:04:13;99104.16;;;32.33;30.56
26376;BME280;30544;42.196;24.336;2022-07-05T08:06:40;99117.31;;;32.82;30.48
26376;BME280;30544;42.196;24.336;2022-07-05T08:09:07;99110.69;;;32.78;30.52
26376;BME280;30544;42.196;24.336;2022-07-05T08:11:35;99109.78;;;32.70;31.01
26376;BME280;30544;42.196;24.336;2022-07-05T08:14:02;99108.56;;;33.30;29.26
26376;BME280;30544;42.196;24.336;2022-07-05T08:16:29;99100.81;;;33.37;29.90
26376;BME280;30544;42.196;24.336;2022-07-05T08:18:55;99100.72;;;32.17;30.49
26376;BME280;30544;42.196;24.336;2022-07-05T08:21:40;99101.72;;;32.83;29.91
26376;BME280;30544;42.196;24.336;2022-07-05T08:24:09;99095.00;;;32.65;29.05
26376;BME280;30544;42.196;24.336;2022-07-05T08:26:38;99106.91;;;32.67;29.47
26376;BME280;30544;42.196;24.336;2022-07-05T08:29:07;99109.47;;;32.79;30.50
26376;BME280;30544;42.196;24.336;2022-07-05T08:31:35;99098.25;;;32.59;31.19
26376;BME280;30544;42.196;24.336;2022-07-05T08:34:04;99092.81;;;33.02;30.12
26376;BME280;30544;42.196;24.336;2022-07-05T08:36:31;99103.38;;;32.84;28.67
26376;BME280;30544;42.196;24.336;2022-07-05T08:38:58;99098.63;;;33.09;28.47
26376;BME280;30544;42.196;24.336;2022-07-05T08:41:25;99099.50;;;33.24;28.41
26376;BME280;30544;42.196;24.336;2022-07-05T08:43:54;99093.28;;;33.11;29.67
26376;BME280;30544;42.196;24.336;2022-07-05T08:46:25;99091.50;;;33.65;29.29
26376;BME280;30544;42.196;24.336;2022-07-05T08:48:52;99088.41;;;33.22;29.30
26376;BME280;30544;42.196;24.336;2022-07-05T08:51:20;99095.13;;;33.44;28.67
26376;BME280;30544;42.196;24.336;2022-07-05T08:53:50;99094.72;;;33.46;28.81
26376;BME280;30544;42.196;24.336;2022-07-05T08:56:18;99095.19;;;32.89;30.54
26376;BME280;30544;42.196;24.336;2022-07-05T08:58:45;99093.09;;;32.83;30.86
26376;BME280;30544;42.196;24.336;2022-07-05T09:01:13;99089.81;;;33.54;31.63
26376;BME280;30544;42.196;24.336;2022-07-05T09:03:42;99082.47;;;33.70;30.24
26376;BME280;30544;42.196;24.336;2022-07-05T09:06:11;99086.28;;;34.03;29.17
26376;BME280;30544;42.196;24.336;2022-07-05T09:08:39;99071.34;;;33.58;28.33
26376;BME280;30544;42.196;24.336;2022-07-05T09:11:08;99090.00;;;34.21;28.01
26376;BME280;30544;42.196;24.336;2022-07-05T09:13:36;99084.28;;;34.35;27.86
26376;BME280;30544;42.196;24.336;2022-07-05T09:16:04;99082.19;;;34.15;27.96
26376;BME280;30544;42.196;24.336;2022-07-05T09:18:43;99090.00;;;34.82;28.36
26376;BME280;30544;42.196;24.336;2022-07-05T09:21:19;99083.75;;;33.84;28.16
26376;BME280;30544;42.196;24.336;2022-07-05T09:23:54;99071.69;;;33.42;28.92
26376;BME280;30544;42.196;24.336;2022-07-05T09:26:28;99078.81;;;33.84;29.15
26376;BME280;30544;42.196;24.336;2022-07-05T09:28:58;99074.97;;;33.41;28.13
26376;BME280;30544;42.196;24.336;2022-07-05T09:31:26;99066.06;;;33.74;29.18
26376;BME280;30544;42.196;24.336;2022-07-05T09:34:02;99060.34;;;33.78;29.21
26376;BME280;30544;42.196;24.336;2022-07-05T09:36:51;99060.00;;;33.03;30.49
26376;BME280;30544;42.196;24.336;2022-07-05T09:39:34;99058.56;;;33.41;30.09
26376;BME280;30544;42.196;24.336;2022-07-05T09:42:12;99053.84;;;34.38;29.14
26376;BME280;30544;42.196;24.336;2022-07-05T09:44:42;99046.41;;;34.80;28.53
26376;BME280;30544;42.196;24.336;2022-07-05T09:47:09;99034.09;;;34.08;28.33
26376;BME280;30544;42.196;24.336;2022-07-05T09:49:42;99050.13;;;34.69;29.28
26376;BME280;30544;42.196;24.336;2022-07-05T09:52:10;99035.31;;;34.71;28.20
26376;BME280;30544;42.196;24.336;2022-07-05T09:54:37;99044.81;;;34.43;28.85
26376;BME280;30544;42.196;24.336;2022-07-05T09:57:04;99040.28;;;34.63;28.62
26376;BME280;30544;42.196;24.336;2022-07-05T09:59:31;99022.56;;;34.72;29.01
26376;BME280;30544;42.196;24.336;2022-07-05T10:01:58;99024.09;;;35.19;28.75
26376;BME280;30544;42.196;24.336;2022-07-05T10:04:24;99019.41;;;35.57;28.90
26376;BME280;30544;42.196;24.336;2022-07-05T10:06:53;99021.59;;;35.28;27.75
26376;BME280;30544;42.196;24.336;2022-07-05T10:09:20;99023.06;;;35.65;28.72
26376;BME280;30544;42.196;24.336;2022-07-05T10:11:49;99001.72;;;35.52;27.57
26376;BME280;30544;42.196;24.336;2022-07-05T10:14:19;99014.88;;;35.56;27.37
26376;BME280;30544;42.196;24.336;2022-07-05T10:16:57;99016.50;;;35.57;26.75
26376;BME280;30544;42.196;24.336;2022-07-05T10:19:28;99012.97;;;35.28;28.10
26376;BME280;30544;42.196;24.336;2022-07-05T10:22:01;99010.31;;;35.66;27.49
26376;BME280;30544;42.196;24.336;2022-07-05T10:24:33;99014.72;;;35.01;26.42
26376;BME280;30544;42.196;24.336;2022-07-05T10:27:04;99001.38;;;35.46;27.46
26376;BME280;30544;42.196;24.336;2022-07-05T10:29:32;99008.97;;;35.81;28.13
26376;BME280;30544;42.196;24.336;2022-07-05T10:32:01;99003.16;;;35.05;27.42
26376;BME280;30544;42.196;24.336;2022-07-05T10:34:29;99008.50;;;35.90;28.03
26376;BME280;30544;42.196;24.336;2022-07-05T10:36:58;99009.50;;;35.62;27.51
26376;BME280;30544;42.196;24.336;2022-07-05T10:39:27;99003.59;;;35.83;27.76
26376;BME280;30544;42.196;24.336;2022-07-05T10:41:55;98996.72;;;35.67;26.90
26376;BME280;30544;42.196;24.336;2022-07-05T10:44:26;99002.69;;;35.97;27.76
26376;BME280;30544;42.196;24.336;2022-07-05T10:47:07;98987.16;;;34.96;26.77
26376;BME280;30544;42.196;24.336;2022-07-05T10:49:35;98991.03;;;35.52;27.15
26376;BME280;30544;42.196;24.336;2022-07-05T10:52:21;98992.13;;;34.85;26.18
26376;BME280;30544;42.196;24.336;2022-07-05T10:55:22;98993.66;;;35.15;27.00
26376;BME280;30544;42.196;24.336;2022-07-05T10:58:17;98994.88;;;35.21;25.71
26376;BME280;30544;42.196;24.336;2022-07-05T11:00:46;98989.31;;;35.66;25.74
26376;BME280;30544;42.196;24.336;2022-07-05T11:03:32;98984.69;;;35.75;24.85
26376;BME280;30544;42.196;24.336;2022-07-05T11:06:00;98982.31;;;35.63;25.06
26376;BME280;30544;42.196;24.336;2022-07-05T11:08:30;98976.16;;;35.61;26.54
26376;BME280;30544;42.196;24.336;2022-07-05T11:11:13;98983.13;;;35.64;25.45
26376;BME280;30544;42.196;24.336;2022-07-05T11:13:41;98976.41;;;35.08;25.45
26376;BME280;30544;42.196;24.336;2022-07-05T11:16:22;98957.69;;;35.51;25.12
26376;BME280;30544;42.196;24.336;2022-07-05T11:18:51;98972.47;;;34.45;25.81
26376;BME280;30544;42.196;24.336;2022-07-05T11:21:19;98963.53;;;35.26;26.61
26376;BME280;30544;42.196;24.336;2022-07-05T11:23:46;98959.88;;;35.92;26.83
26376;BME280;30544;42.196;24.336;2022-07-05T11:26:17;98952.63;;;35.66;25.43
26376;BME280;30544;42.196;24.336;2022-07-05T11:28:46;98950.06;;;36.31;24.68
26376;BME280;30544;42.196;24.336;2022-07-05T11:31:39;98948.22;;;36.51;25.53
26376;BME280;30544;42.196;24.336;2022-07-05T11:34:13;98939.94;;;36.08;24.84
26376;BME280;30544;42.196;24.336;2022-07-05T11:36:40;98946.78;;;36.29;23.56
26376;BME280;30544;42.196;24.336;2022-07-05T11:39:13;98938.91;;;36.36;24.89
26376;BME280;30544;42.196;24.336;2022-07-05T11:41:45;98943.47;;;36.34;24.38
26376;BME280;30544;42.196;24.336;2022-07-05T11:44:12;98940.78;;;36.09;24.73
26376;BME280;30544;42.196;24.336;2022-07-05T11:46:40;98930.13;;;36.02;24.90
26376;BME280;30544;42.196;24.336;2022-07-05T11:49:07;98933.00;;;36.02;25.44
26376;BME280;30544;42.196;24.336;2022-07-05T11:51:34;98931.63;;;36.62;24.06
26376;BME280;30544;42.196;24.336;2022-07-05T11:54:02;98936.41;;;36.38;24.57
26376;BME280;30544;42.196;24.336;2022-07-05T11:56:31;98937.78;;;36.61;24.74
26376;BME280;30544;42.196;24.336;2022-07-05T11:58:59;98931.53;;;37.03;24.12
26376;BME280;30544;42.196;24.336;2022-07-05T12:01:26;98930.91;;;36.06;24.32
26376;BME280;30544;42.196;24.336;2022-07-05T12:03:53;98929.34;;;35.98;24.63
26376;BME280;30544;42.196;24.336;2022-07-05T12:06:21;98918.75;;;36.26;25.70
26376;BME280;30544;42.196;24.336;2022-07-05T12:09:01;98927.59;;;36.53;25.97
26376;BME280;30544;42.196;24.336;2022-07-05T12:11:29;98919.03;;;36.45;26.00
26376;BME280;30544;42.196;24.336;2022-07-05T12:14:21;98921.28;;;36.61;25.44
26376;BME280;30544;42.196;24.336;2022-07-05T12:16:48;98917.47;;;36.34;25.91
26376;BME280;30544;42.196;24.336;2022-07-05T12:19:25;98918.41;;;36.61;26.85
26376;BME280;30544;42.196;24.336;2022-07-05T12:21:52;98907.91;;;35.99;25.76
26376;BME280;30544;42.196;24.336;2022-07-05T12:24:20;98905.94;;;36.34;26.71
26376;BME280;30544;42.196;24.336;2022-07-05T12:26:48;98902.44;;;36.87;26.57
26376;BME280;30544;42.196;24.336;2022-07-05T12:29:16;98903.22;;;36.91;26.23
26376;BME280;30544;42.196;24.336;2022-07-05T12:32:00;98897.06;;;36.89;25.75
26376;BME280;30544;42.196;24.336;2022-07-05T12:34:27;98891.00;;;36.76;25.94
26376;BME280;30544;42.196;24.336;2022-07-05T12:36:55;98890.94;;;36.84;26.83
26376;BME280;30544;42.196;24.336;2022-07-05T12:39:22;98883.78;;;37.22;26.39
26376;BME280;30544;42.196;24.336;2022-07-05T12:41:50;98889.72;;;36.78;26.64
26376;BME280;30544;42.196;24.336;2022-07-05T12:44:18;98885.69;;;37.05;26.53
26376;BME280;30544;42.196;24.336;2022-07-05T12:46:45;98886.31;;;37.20;25.58
26376;BME280;30544;42.196;24.336;2022-07-05T12:49:16;98879.03;;;37.09;26.92
26376;BME280;30544;42.196;24.336;2022-07-05T12:51:44;98876.88;;;37.16;25.96
26376;BME280;30544;42.196;24.336;2022-07-05T12:54:19;98865.50;;;37.32;26.43
26376;BME280;30544;42.196;24.336;2022-07-05T12:57:04;98869.50;;;36.06;26.70
26376;BME280;30544;42.196;24.336;2022-07-05T12:59:59;98867.88;;;36.46;26.83
26376;BME280;30544;42.196;24.336;2022-07-05T13:02:36;98867.06;;;36.80;26.66